sensor_id;sensor_type;location;lat;lon;timestamp;P1;durP1;ratioP1;P2;durP2;ratioP2
12151;SDS011;6139;51.274;7.128;2022-07-11T00:00:26;5.47;;;2.80;;
12151;SDS011;6139;51.274;7.128;2022-07-11T00:01:27;2.85;;;2.42;;
12151;SDS011;6139;51.274;7.128;2022-07-11T00:02:29;4.25;;;2.60;;
12151;SDS011;6139;51.274;7.128;2022-07-11T00:03:30;3.50;;;2.50;;
12151;SDS011;6139;51.274;7.128;2022-07-11T00:04:32;4.10;;;2.63;;
12151;SDS011;6139;51.274;7.128;2022-07-11T00:05:34;3.50;;;2.80;;
12151;SDS011;6139;51.274;7.128;2022-07-11T00:06:37;4.20;;;2.78;;
12151;SDS011;6139;51.274;7.128;2022-07-11T00:07:38;4.05;;;2.22;;
12151;SDS011;6139;51.274;7.128;2022-07-11T00:08:40;3.60;;;2.72;;
12151;SDS011;6139;51.274;7.128;2022-07-11T00:09:41;4.13;;;3.00;;
12151;SDS011;6139;51.274;7.128;2022-07-11T00:10:43;4.13;;;2.78;;
12151;SDS011;6139;51.274;7.128;2022-07-11T00:11:44;4.03;;;2.50;;
12151;SDS011;6139;51.274;7.128;2022-07-11T00:12:46;3.83;;;2.60;;
12151;SDS011;6139;51.274;7.128;2022-07-11T00:13:47;4.78;;;3.08;;
12151;SDS011;6139;51.274;7.128;2022-07-11T00:14:50;4.25;;;2.45;;
12151;SDS011;6139;51.274;7.128;2022-07-11T00:15:51;6.00;;;2.75;;
12151;SDS011;6139;51.274;7.128;2022-07-11T00:16:53;4.47;;;2.70;;
12151;SDS011;6139;51.274;7.128;2022-07-11T00:17:54;3.45;;;2.70;;
12151;SDS011;6139;51.274;7.128;2022-07-11T00:18:57;5.30;;;2.65;;
12151;SDS011;6139;51.274;7.128;2022-07-11T00:19:58;3.05;;;2.80;;
12151;SDS011;6139;51.274;7.128;2022-07-11T00:21:00;4.88;;;3.15;;
12151;SDS011;6139;51.274;7.128;2022-07-11T00:22:02;4.20;;;2.60;;
12151;SDS011;6139;51.274;7.128;2022-07-11T00:23:05;6.45;;;2.83;;
12151;SDS011;6139;51.274;7.128;2022-07-11T00:24:06;4.68;;;3.20;;
12151;SDS011;6139;51.274;7.128;2022-07-11T00:25:08;3.55;;;2.60;;
12151;SDS011;6139;51.274;7.128;2022-07-11T00:26:09;4.65;;;3.97;;
12151;SDS011;6139;51.274;7.128;2022-07-11T00:27:11;6.18;;;3.22;;
12151;SDS011;6139;51.274;7.128;2022-07-11T00:28:14;4.35;;;2.88;;
12151;SDS011;6139;51.274;7.128;2022-07-11T00:29:16;5.68;;;3.25;;
12151;SDS011;6139;51.274;7.128;2022-07-11T00:30:17;3.85;;;2.90;;
12151;SDS011;6139;51.274;7.128;2022-07-11T00:31:19;6.70;;;3.33;;
12151;SDS011;6139;51.274;7.128;2022-07-11T00:32:20;5.03;;;3.70;;
12151;SDS011;6139;51.274;7.128;2022-07-11T00:33:22;3.75;;;2.97;;
12151;SDS011;6139;51.274;7.128;2022-07-11T00:34:23;4.30;;;3.22;;
12151;SDS011;6139;51.274;7.128;2022-07-11T00:35:25;4.13;;;2.75;;
12151;SDS011;6139;51.274;7.128;2022-07-11T00:36:26;4.30;;;3.42;;
12151;SDS011;6139;51.274;7.128;2022-07-11T00:37:30;5.10;;;2.95;;
12151;SDS011;6139;51.274;7.128;2022-07-11T00:38:32;7.00;;;3.42;;
12151;SDS011;6139;51.274;7.128;2022-07-11T00:39:33;5.57;;;3.08;;
12151;SDS011;6139;51.274;7.128;2022-07-11T00:40:35;3.20;;;2.90;;
12151;SDS011;6139;51.274;7.128;2022-07-11T00:41:36;2.90;;;2.60;;
12151;SDS011;6139;51.274;7.128;2022-07-11T00:42:37;4.18;;;2.60;;
12151;SDS011;6139;51.274;7.128;2022-07-11T00:43:39;7.15;;;3.05;;
12151;SDS011;6139;51.274;7.128;2022-07-11T00:44:42;3.42;;;2.70;;
12151;SDS011;6139;51.274;7.128;2022-07-11T00:45:42;6.25;;;3.15;;
12151;SDS011;6139;51.274;7.128;2022-07-11T00:46:44;5.35;;;3.17;;
12151;SDS011;6139;51.274;7.128;2022-07-11T00:47:45;4.95;;;3.20;;
12151;SDS011;6139;51.274;7.128;2022-07-11T00:48:48;3.90;;;3.20;;
12151;SDS011;6139;51.274;7.128;2022-07-11T00:49:49;3.35;;;2.90;;
12151;SDS011;6139;51.274;7.128;2022-07-11T00:50:51;3.78;;;2.97;;
12151;SDS011;6139;51.274;7.128;2022-07-11T00:51:52;4.95;;;2.90;;
12151;SDS011;6139;51.274;7.128;2022-07-11T00:52:56;8.63;;;3.28;;
12151;SDS011;6139;51.274;7.128;2022-07-11T00:53:58;5.18;;;3.30;;
12151;SDS011;6139;51.274;7.128;2022-07-11T00:55:01;2.92;;;2.55;;
12151;SDS011;6139;51.274;7.128;2022-07-11T00:56:04;4.55;;;3.15;;
12151;SDS011;6139;51.274;7.128;2022-07-11T00:57:07;4.70;;;3.13;;
12151;SDS011;6139;51.274;7.128;2022-07-11T00:58:09;4.32;;;2.95;;
12151;SDS011;6139;51.274;7.128;2022-07-11T00:59:10;4.00;;;3.17;;
12151;SDS011;6139;51.274;7.128;2022-07-11T01:00:12;5.70;;;3.30;;
12151;SDS011;6139;51.274;7.128;2022-07-11T01:01:13;3.70;;;3.08;;
12151;SDS011;6139;51.274;7.128;2022-07-11T01:02:15;4.15;;;3.30;;
12151;SDS011;6139;51.274;7.128;2022-07-11T01:03:16;6.05;;;3.03;;
12151;SDS011;6139;51.274;7.128;2022-07-11T01:04:18;3.75;;;3.10;;
12151;SDS011;6139;51.274;7.128;2022-07-11T01:05:20;5.70;;;3.55;;
12151;SDS011;6139;51.274;7.128;2022-07-11T01:06:22;3.47;;;3.13;;
12151;SDS011;6139;51.274;7.128;2022-07-11T01:07:23;5.13;;;3.17;;
12151;SDS011;6139;51.274;7.128;2022-07-11T01:08:26;6.72;;;3.10;;
12151;SDS011;6139;51.274;7.128;2022-07-11T01:09:31;6.03;;;3.08;;
12151;SDS011;6139;51.274;7.128;2022-07-11T01:10:33;3.90;;;2.95;;
12151;SDS011;6139;51.274;7.128;2022-07-11T01:11:35;4.57;;;3.45;;
12151;SDS011;6139;51.274;7.128;2022-07-11T01:12:37;6.45;;;3.30;;
12151;SDS011;6139;51.274;7.128;2022-07-11T01:13:38;3.60;;;3.30;;
12151;SDS011;6139;51.274;7.128;2022-07-11T01:14:49;4.88;;;3.35;;
12151;SDS011;6139;51.274;7.128;2022-07-11T01:15:58;6.10;;;3.70;;
12151;SDS011;6139;51.274;7.128;2022-07-11T01:17:08;4.22;;;3.20;;
12151;SDS011;6139;51.274;7.128;2022-07-11T01:18:10;5.43;;;3.55;;
12151;SDS011;6139;51.274;7.128;2022-07-11T01:19:10;4.47;;;3.53;;
12151;SDS011;6139;51.274;7.128;2022-07-11T01:20:13;7.18;;;3.60;;
12151;SDS011;6139;51.274;7.128;2022-07-11T01:21:18;6.90;;;3.35;;
12151;SDS011;6139;51.274;7.128;2022-07-11T01:22:24;4.53;;;3.08;;
12151;SDS011;6139;51.274;7.128;2022-07-11T01:23:29;4.47;;;3.20;;
12151;SDS011;6139;51.274;7.128;2022-07-11T01:24:32;5.00;;;3.30;;
12151;SDS011;6139;51.274;7.128;2022-07-11T01:25:33;5.90;;;3.30;;
12151;SDS011;6139;51.274;7.128;2022-07-11T01:26:35;5.30;;;3.35;;
12151;SDS011;6139;51.274;7.128;2022-07-11T01:27:36;6.20;;;3.63;;
12151;SDS011;6139;51.274;7.128;2022-07-11T01:28:39;5.05;;;3.03;;
12151;SDS011;6139;51.274;7.128;2022-07-11T01:29:40;4.53;;;3.33;;
12151;SDS011;6139;51.274;7.128;2022-07-11T01:30:42;8.18;;;3.17;;
12151;SDS011;6139;51.274;7.128;2022-07-11T01:31:43;4.88;;;3.08;;
12151;SDS011;6139;51.274;7.128;2022-07-11T01:32:46;4.68;;;3.15;;
12151;SDS011;6139;51.274;7.128;2022-07-11T01:33:47;4.32;;;3.08;;
12151;SDS011;6139;51.274;7.128;2022-07-11T01:34:50;8.05;;;3.20;;
12151;SDS011;6139;51.274;7.128;2022-07-11T01:35:51;5.80;;;3.22;;
12151;SDS011;6139;51.274;7.128;2022-07-11T01:36:53;6.43;;;2.97;;
12151;SDS011;6139;51.274;7.128;2022-07-11T01:37:54;5.80;;;3.20;;
12151;SDS011;6139;51.274;7.128;2022-07-11T01:38:57;5.03;;;3.00;;
12151;SDS011;6139;51.274;7.128;2022-07-11T01:39:58;3.53;;;2.30;;
12151;SDS011;6139;51.274;7.128;2022-07-11T01:41:00;7.05;;;3.10;;
12151;SDS011;6139;51.274;7.128;2022-07-11T01:42:02;4.10;;;2.90;;
12151;SDS011;6139;51.274;7.128;2022-07-11T01:43:04;4.95;;;3.17;;
12151;SDS011;6139;51.274;7.128;2022-07-11T01:44:05;6.18;;;3.22;;
12151;SDS011;6139;51.274;7.128;2022-07-11T01:45:07;6.82;;;2.80;;
12151;SDS011;6139;51.274;7.128;2022-07-11T01:46:09;4.65;;;2.92;;
12151;SDS011;6139;51.274;7.128;2022-07-11T01:47:11;3.92;;;2.60;;
12151;SDS011;6139;51.274;7.128;2022-07-11T01:48:12;4.78;;;2.72;;
12151;SDS011;6139;51.274;7.128;2022-07-11T01:49:14;8.10;;;2.80;;
12151;SDS011;6139;51.274;7.128;2022-07-11T01:50:15;3.53;;;3.10;;
12151;SDS011;6139;51.274;7.128;2022-07-11T01:51:18;5.93;;;2.75;;
12151;SDS011;6139;51.274;7.128;2022-07-11T01:52:19;7.32;;;3.10;;
12151;SDS011;6139;51.274;7.128;2022-07-11T01:53:21;4.55;;;2.70;;
12151;SDS011;6139;51.274;7.128;2022-07-11T01:54:23;6.22;;;2.95;;
12151;SDS011;6139;51.274;7.128;2022-07-11T01:55:25;4.68;;;3.00;;
12151;SDS011;6139;51.274;7.128;2022-07-11T01:56:26;4.38;;;2.63;;
12151;SDS011;6139;51.274;7.128;2022-07-11T01:57:29;6.72;;;2.85;;
12151;SDS011;6139;51.274;7.128;2022-07-11T01:58:30;6.82;;;2.90;;
12151;SDS011;6139;51.274;7.128;2022-07-11T01:59:32;5.18;;;2.92;;
12151;SDS011;6139;51.274;7.128;2022-07-11T02:00:33;5.20;;;3.08;;
12151;SDS011;6139;51.274;7.128;2022-07-11T02:01:35;5.03;;;3.13;;
12151;SDS011;6139;51.274;7.128;2022-07-11T02:02:36;5.35;;;3.22;;
12151;SDS011;6139;51.274;7.128;2022-07-11T02:03:38;3.33;;;2.42;;
12151;SDS011;6139;51.274;7.128;2022-07-11T02:04:40;3.00;;;2.67;;
12151;SDS011;6139;51.274;7.128;2022-07-11T02:05:41;5.50;;;3.10;;
12151;SDS011;6139;51.274;7.128;2022-07-11T02:06:43;5.15;;;3.00;;
12151;SDS011;6139;51.274;7.128;2022-07-11T02:07:44;4.30;;;3.20;;
12151;SDS011;6139;51.274;7.128;2022-07-11T02:09:04;5.90;;;3.20;;
12151;SDS011;6139;51.274;7.128;2022-07-11T02:10:08;5.15;;;2.70;;
12151;SDS011;6139;51.274;7.128;2022-07-11T02:11:09;4.97;;;3.10;;
12151;SDS011;6139;51.274;7.128;2022-07-11T02:12:11;4.38;;;2.80;;
12151;SDS011;6139;51.274;7.128;2022-07-11T02:13:12;3.83;;;2.80;;
12151;SDS011;6139;51.274;7.128;2022-07-11T02:14:16;4.18;;;2.80;;
12151;SDS011;6139;51.274;7.128;2022-07-11T02:15:17;4.57;;;2.92;;
12151;SDS011;6139;51.274;7.128;2022-07-11T02:16:18;5.60;;;2.80;;
12151;SDS011;6139;51.274;7.128;2022-07-11T02:17:19;3.88;;;2.55;;
12151;SDS011;6139;51.274;7.128;2022-07-11T02:18:21;5.88;;;2.90;;
12151;SDS011;6139;51.274;7.128;2022-07-11T02:19:23;4.80;;;2.67;;
12151;SDS011;6139;51.274;7.128;2022-07-11T02:20:24;4.35;;;2.70;;
12151;SDS011;6139;51.274;7.128;2022-07-11T02:21:27;5.90;;;3.50;;
12151;SDS011;6139;51.274;7.128;2022-07-11T02:22:29;4.25;;;2.80;;
12151;SDS011;6139;51.274;7.128;2022-07-11T02:23:30;6.05;;;3.30;;
12151;SDS011;6139;51.274;7.128;2022-07-11T02:24:32;4.10;;;2.70;;
12151;SDS011;6139;51.274;7.128;2022-07-11T02:25:34;4.28;;;2.85;;
12151;SDS011;6139;51.274;7.128;2022-07-11T02:26:38;4.65;;;2.80;;
12151;SDS011;6139;51.274;7.128;2022-07-11T02:27:39;3.75;;;2.83;;
12151;SDS011;6139;51.274;7.128;2022-07-11T02:28:42;5.13;;;2.75;;
12151;SDS011;6139;51.274;7.128;2022-07-11T02:29:43;3.75;;;2.55;;
12151;SDS011;6139;51.274;7.128;2022-07-11T02:30:45;4.43;;;2.53;;
12151;SDS011;6139;51.274;7.128;2022-07-11T02:31:47;4.07;;;2.60;;
12151;SDS011;6139;51.274;7.128;2022-07-11T02:32:48;5.15;;;2.90;;
12151;SDS011;6139;51.274;7.128;2022-07-11T02:33:50;3.55;;;2.60;;
12151;SDS011;6139;51.274;7.128;2022-07-11T02:34:51;4.30;;;2.70;;
12151;SDS011;6139;51.274;7.128;2022-07-11T02:35:53;5.93;;;2.75;;
12151;SDS011;6139;51.274;7.128;2022-07-11T02:36:54;3.55;;;2.63;;
12151;SDS011;6139;51.274;7.128;2022-07-11T02:37:56;4.10;;;2.58;;
12151;SDS011;6139;51.274;7.128;2022-07-11T02:38:57;4.25;;;2.55;;
12151;SDS011;6139;51.274;7.128;2022-07-11T02:39:59;4.63;;;3.10;;
12151;SDS011;6139;51.274;7.128;2022-07-11T02:41:01;4.78;;;2.80;;
12151;SDS011;6139;51.274;7.128;2022-07-11T02:42:04;5.25;;;3.00;;
12151;SDS011;6139;51.274;7.128;2022-07-11T02:43:05;5.03;;;3.00;;
12151;SDS011;6139;51.274;7.128;2022-07-11T02:44:08;5.55;;;2.65;;
12151;SDS011;6139;51.274;7.128;2022-07-11T02:45:09;5.32;;;3.13;;
12151;SDS011;6139;51.274;7.128;2022-07-11T02:46:11;3.90;;;2.65;;
12151;SDS011;6139;51.274;7.128;2022-07-11T02:47:12;4.78;;;2.60;;
12151;SDS011;6139;51.274;7.128;2022-07-11T02:48:14;3.95;;;2.97;;
12151;SDS011;6139;51.274;7.128;2022-07-11T02:49:15;3.58;;;2.47;;
12151;SDS011;6139;51.274;7.128;2022-07-11T02:50:17;3.10;;;2.40;;
12151;SDS011;6139;51.274;7.128;2022-07-11T02:51:18;5.35;;;2.85;;
12151;SDS011;6139;51.274;7.128;2022-07-11T02:52:20;4.35;;;2.65;;
12151;SDS011;6139;51.274;7.128;2022-07-11T02:53:21;3.67;;;2.60;;
12151;SDS011;6139;51.274;7.128;2022-07-11T02:54:23;3.95;;;2.70;;
12151;SDS011;6139;51.274;7.128;2022-07-11T02:55:24;4.45;;;3.17;;
12151;SDS011;6139;51.274;7.128;2022-07-11T02:56:27;7.65;;;3.17;;
12151;SDS011;6139;51.274;7.128;2022-07-11T02:57:28;4.57;;;2.97;;
12151;SDS011;6139;51.274;7.128;2022-07-11T02:58:30;6.78;;;3.90;;
12151;SDS011;6139;51.274;7.128;2022-07-11T02:59:32;4.30;;;2.65;;
12151;SDS011;6139;51.274;7.128;2022-07-11T03:00:34;4.90;;;3.00;;
12151;SDS011;6139;51.274;7.128;2022-07-11T03:01:36;6.40;;;3.55;;
12151;SDS011;6139;51.274;7.128;2022-07-11T03:02:37;3.50;;;2.42;;
12151;SDS011;6139;51.274;7.128;2022-07-11T03:03:39;3.60;;;2.67;;
12151;SDS011;6139;51.274;7.128;2022-07-11T03:04:40;8.82;;;3.20;;
12151;SDS011;6139;51.274;7.128;2022-07-11T03:05:42;4.18;;;2.92;;
12151;SDS011;6139;51.274;7.128;2022-07-11T03:06:44;4.93;;;2.75;;
12151;SDS011;6139;51.274;7.128;2022-07-11T03:07:45;4.97;;;2.83;;
12151;SDS011;6139;51.274;7.128;2022-07-11T03:08:47;6.55;;;3.22;;
12151;SDS011;6139;51.274;7.128;2022-07-11T03:09:49;4.22;;;2.90;;
12151;SDS011;6139;51.274;7.128;2022-07-11T03:10:50;5.53;;;3.15;;
12151;SDS011;6139;51.274;7.128;2022-07-11T03:11:53;3.92;;;3.42;;
12151;SDS011;6139;51.274;7.128;2022-07-11T03:12:55;4.95;;;3.33;;
12151;SDS011;6139;51.274;7.128;2022-07-11T03:13:56;4.03;;;3.10;;
12151;SDS011;6139;51.274;7.128;2022-07-11T03:14:58;6.13;;;3.10;;
12151;SDS011;6139;51.274;7.128;2022-07-11T03:15:59;5.05;;;3.47;;
12151;SDS011;6139;51.274;7.128;2022-07-11T03:17:02;5.78;;;3.33;;
12151;SDS011;6139;51.274;7.128;2022-07-11T03:18:03;6.80;;;3.33;;
12151;SDS011;6139;51.274;7.128;2022-07-11T03:19:05;9.32;;;3.42;;
12151;SDS011;6139;51.274;7.128;2022-07-11T03:20:06;4.40;;;2.88;;
12151;SDS011;6139;51.274;7.128;2022-07-11T03:21:09;5.93;;;3.30;;
12151;SDS011;6139;51.274;7.128;2022-07-11T03:22:10;4.15;;;2.70;;
12151;SDS011;6139;51.274;7.128;2022-07-11T03:23:12;3.90;;;3.00;;
12151;SDS011;6139;51.274;7.128;2022-07-11T03:24:13;4.10;;;2.83;;
12151;SDS011;6139;51.274;7.128;2022-07-11T03:25:15;5.85;;;3.08;;
12151;SDS011;6139;51.274;7.128;2022-07-11T03:26:17;4.38;;;3.33;;
12151;SDS011;6139;51.274;7.128;2022-07-11T03:27:20;6.47;;;2.92;;
12151;SDS011;6139;51.274;7.128;2022-07-11T03:28:21;4.18;;;3.30;;
12151;SDS011;6139;51.274;7.128;2022-07-11T03:29:23;5.30;;;3.13;;
12151;SDS011;6139;51.274;7.128;2022-07-11T03:30:24;4.72;;;3.60;;
12151;SDS011;6139;51.274;7.128;2022-07-11T03:31:27;5.38;;;3.50;;
12151;SDS011;6139;51.274;7.128;2022-07-11T03:32:27;7.97;;;3.72;;
12151;SDS011;6139;51.274;7.128;2022-07-11T03:33:29;8.50;;;3.78;;
12151;SDS011;6139;51.274;7.128;2022-07-11T03:34:30;7.95;;;3.92;;
12151;SDS011;6139;51.274;7.128;2022-07-11T03:35:32;7.50;;;4.30;;
12151;SDS011;6139;51.274;7.128;2022-07-11T03:36:42;6.18;;;4.15;;
12151;SDS011;6139;51.274;7.128;2022-07-11T03:37:46;7.13;;;3.80;;
12151;SDS011;6139;51.274;7.128;2022-07-11T03:38:47;6.32;;;3.90;;
12151;SDS011;6139;51.274;7.128;2022-07-11T03:39:49;7.68;;;3.30;;
12151;SDS011;6139;51.274;7.128;2022-07-11T03:40:50;6.05;;;3.88;;
12151;SDS011;6139;51.274;7.128;2022-07-11T03:41:53;7.35;;;3.92;;
12151;SDS011;6139;51.274;7.128;2022-07-11T03:42:56;5.93;;;4.07;;
12151;SDS011;6139;51.274;7.128;2022-07-11T03:43:58;6.68;;;3.72;;
12151;SDS011;6139;51.274;7.128;2022-07-11T03:44:59;7.03;;;3.90;;
12151;SDS011;6139;51.274;7.128;2022-07-11T03:46:01;6.68;;;3.97;;
12151;SDS011;6139;51.274;7.128;2022-07-11T03:47:03;4.43;;;3.67;;
12151;SDS011;6139;51.274;7.128;2022-07-11T03:48:04;6.72;;;4.57;;
12151;SDS011;6139;51.274;7.128;2022-07-11T03:49:07;6.90;;;4.45;;
12151;SDS011;6139;51.274;7.128;2022-07-11T03:50:09;6.30;;;4.47;;
12151;SDS011;6139;51.274;7.128;2022-07-11T03:51:11;6.80;;;4.10;;
12151;SDS011;6139;51.274;7.128;2022-07-11T03:52:12;9.38;;;4.78;;
12151;SDS011;6139;51.274;7.128;2022-07-11T03:53:14;5.25;;;4.32;;
12151;SDS011;6139;51.274;7.128;2022-07-11T03:54:15;8.70;;;4.30;;
12151;SDS011;6139;51.274;7.128;2022-07-11T03:55:17;7.28;;;4.97;;
12151;SDS011;6139;51.274;7.128;2022-07-11T03:56:19;6.57;;;4.45;;
12151;SDS011;6139;51.274;7.128;2022-07-11T03:57:22;5.72;;;4.72;;
12151;SDS011;6139;51.274;7.128;2022-07-11T03:58:25;4.70;;;4.00;;
12151;SDS011;6139;51.274;7.128;2022-07-11T03:59:26;7.50;;;4.00;;
12151;SDS011;6139;51.274;7.128;2022-07-11T04:00:27;5.50;;;3.85;;
12151;SDS011;6139;51.274;7.128;2022-07-11T04:01:29;7.28;;;4.40;;
12151;SDS011;6139;51.274;7.128;2022-07-11T04:02:31;8.63;;;4.70;;
12151;SDS011;6139;51.274;7.128;2022-07-11T04:03:33;6.03;;;4.50;;
12151;SDS011;6139;51.274;7.128;2022-07-11T04:04:35;6.03;;;3.83;;
12151;SDS011;6139;51.274;7.128;2022-07-11T04:05:36;5.50;;;3.40;;
12151;SDS011;6139;51.274;7.128;2022-07-11T04:06:38;5.43;;;3.80;;
12151;SDS011;6139;51.274;7.128;2022-07-11T04:07:39;7.28;;;3.78;;
12151;SDS011;6139;51.274;7.128;2022-07-11T04:08:42;6.10;;;3.80;;
12151;SDS011;6139;51.274;7.128;2022-07-11T04:09:44;5.28;;;3.63;;
12151;SDS011;6139;51.274;7.128;2022-07-11T04:10:45;7.93;;;3.30;;
12151;SDS011;6139;51.274;7.128;2022-07-11T04:11:47;5.57;;;3.35;;
12151;SDS011;6139;51.274;7.128;2022-07-11T04:12:48;7.90;;;3.45;;
12151;SDS011;6139;51.274;7.128;2022-07-11T04:13:51;4.88;;;3.08;;
12151;SDS011;6139;51.274;7.128;2022-07-11T04:14:53;4.60;;;3.10;;
12151;SDS011;6139;51.274;7.128;2022-07-11T04:15:54;6.90;;;3.70;;
12151;SDS011;6139;51.274;7.128;2022-07-11T04:16:56;4.47;;;3.33;;
12151;SDS011;6139;51.274;7.128;2022-07-11T04:17:57;4.75;;;2.80;;
12151;SDS011;6139;51.274;7.128;2022-07-11T04:18:59;4.15;;;2.60;;
12151;SDS011;6139;51.274;7.128;2022-07-11T04:20:00;4.55;;;2.92;;
12151;SDS011;6139;51.274;7.128;2022-07-11T04:21:02;6.28;;;2.90;;
12151;SDS011;6139;51.274;7.128;2022-07-11T04:22:04;4.60;;;2.50;;
12151;SDS011;6139;51.274;7.128;2022-07-11T04:23:06;4.20;;;3.00;;
12151;SDS011;6139;51.274;7.128;2022-07-11T04:24:07;4.25;;;2.80;;
12151;SDS011;6139;51.274;7.128;2022-07-11T04:25:09;4.75;;;3.28;;
12151;SDS011;6139;51.274;7.128;2022-07-11T04:26:10;5.32;;;2.88;;
12151;SDS011;6139;51.274;7.128;2022-07-11T04:27:12;6.85;;;3.03;;
12151;SDS011;6139;51.274;7.128;2022-07-11T04:28:13;4.50;;;3.13;;
12151;SDS011;6139;51.274;7.128;2022-07-11T04:29:16;3.95;;;2.75;;
12151;SDS011;6139;51.274;7.128;2022-07-11T04:30:17;6.65;;;3.00;;
12151;SDS011;6139;51.274;7.128;2022-07-11T04:31:19;2.90;;;2.55;;
12151;SDS011;6139;51.274;7.128;2022-07-11T04:32:20;4.78;;;2.95;;
12151;SDS011;6139;51.274;7.128;2022-07-11T04:33:22;3.47;;;3.15;;
12151;SDS011;6139;51.274;7.128;2022-07-11T04:34:23;3.22;;;2.63;;
12151;SDS011;6139;51.274;7.128;2022-07-11T04:35:25;4.65;;;2.78;;
12151;SDS011;6139;51.274;7.128;2022-07-11T04:36:27;4.38;;;3.17;;
12151;SDS011;6139;51.274;7.128;2022-07-11T04:37:29;5.00;;;3.00;;
12151;SDS011;6139;51.274;7.128;2022-07-11T04:38:30;4.68;;;3.17;;
12151;SDS011;6139;51.274;7.128;2022-07-11T04:39:32;3.28;;;2.65;;
12151;SDS011;6139;51.274;7.128;2022-07-11T04:40:33;3.42;;;2.50;;
12151;SDS011;6139;51.274;7.128;2022-07-11T04:41:35;5.60;;;2.65;;
12151;SDS011;6139;51.274;7.128;2022-07-11T04:42:37;3.72;;;2.70;;
12151;SDS011;6139;51.274;7.128;2022-07-11T04:43:39;3.97;;;2.35;;
12151;SDS011;6139;51.274;7.128;2022-07-11T04:44:41;3.45;;;2.70;;
12151;SDS011;6139;51.274;7.128;2022-07-11T04:45:43;3.47;;;2.63;;
12151;SDS011;6139;51.274;7.128;2022-07-11T04:46:44;3.88;;;3.10;;
12151;SDS011;6139;51.274;7.128;2022-07-11T04:47:46;7.72;;;2.97;;
12151;SDS011;6139;51.274;7.128;2022-07-11T04:48:47;5.78;;;3.72;;
12151;SDS011;6139;51.274;7.128;2022-07-11T04:49:49;5.70;;;3.95;;
12151;SDS011;6139;51.274;7.128;2022-07-11T04:50:51;5.35;;;3.97;;
12151;SDS011;6139;51.274;7.128;2022-07-11T04:51:53;6.88;;;4.50;;
12151;SDS011;6139;51.274;7.128;2022-07-11T04:52:54;5.50;;;4.47;;
12151;SDS011;6139;51.274;7.128;2022-07-11T04:53:56;4.75;;;4.35;;
12151;SDS011;6139;51.274;7.128;2022-07-11T04:54:57;5.70;;;3.83;;
12151;SDS011;6139;51.274;7.128;2022-07-11T04:55:59;4.82;;;4.40;;
12151;SDS011;6139;51.274;7.128;2022-07-11T04:57:00;5.07;;;4.43;;
12151;SDS011;6139;51.274;7.128;2022-07-11T04:58:02;5.07;;;4.20;;
12151;SDS011;6139;51.274;7.128;2022-07-11T04:59:03;5.50;;;4.30;;
12151;SDS011;6139;51.274;7.128;2022-07-11T05:00:08;4.88;;;4.25;;
12151;SDS011;6139;51.274;7.128;2022-07-11T05:01:09;6.82;;;4.30;;
12151;SDS011;6139;51.274;7.128;2022-07-11T05:02:12;4.75;;;4.35;;
12151;SDS011;6139;51.274;7.128;2022-07-11T05:03:13;3.92;;;3.50;;
12151;SDS011;6139;51.274;7.128;2022-07-11T05:04:15;4.47;;;3.85;;
12151;SDS011;6139;51.274;7.128;2022-07-11T05:05:16;5.20;;;3.58;;
12151;SDS011;6139;51.274;7.128;2022-07-11T05:06:19;6.70;;;3.75;;
12151;SDS011;6139;51.274;7.128;2022-07-11T05:07:21;10.20;;;4.00;;
12151;SDS011;6139;51.274;7.128;2022-07-11T05:08:23;5.93;;;4.18;;
12151;SDS011;6139;51.274;7.128;2022-07-11T05:09:24;4.35;;;3.95;;
12151;SDS011;6139;51.274;7.128;2022-07-11T05:10:26;5.45;;;3.90;;
12151;SDS011;6139;51.274;7.128;2022-07-11T05:11:27;4.28;;;3.53;;
12151;SDS011;6139;51.274;7.128;2022-07-11T05:12:29;3.90;;;3.60;;
12151;SDS011;6139;51.274;7.128;2022-07-11T05:13:30;4.07;;;3.58;;
12151;SDS011;6139;51.274;7.128;2022-07-11T05:14:32;4.90;;;3.60;;
12151;SDS011;6139;51.274;7.128;2022-07-11T05:15:35;5.40;;;3.40;;
12151;SDS011;6139;51.274;7.128;2022-07-11T05:16:38;5.07;;;3.60;;
12151;SDS011;6139;51.274;7.128;2022-07-11T05:17:39;4.10;;;3.03;;
12151;SDS011;6139;51.274;7.128;2022-07-11T05:18:41;3.78;;;3.47;;
12151;SDS011;6139;51.274;7.128;2022-07-11T05:19:42;4.75;;;3.25;;
12151;SDS011;6139;51.274;7.128;2022-07-11T05:20:44;4.70;;;3.28;;
12151;SDS011;6139;51.274;7.128;2022-07-11T05:21:45;5.05;;;3.10;;
12151;SDS011;6139;51.274;7.128;2022-07-11T05:22:47;4.20;;;2.90;;
12151;SDS011;6139;51.274;7.128;2022-07-11T05:23:50;4.32;;;2.75;;
12151;SDS011;6139;51.274;7.128;2022-07-11T05:24:51;5.38;;;3.20;;
12151;SDS011;6139;51.274;7.128;2022-07-11T05:25:53;4.72;;;2.70;;
12151;SDS011;6139;51.274;7.128;2022-07-11T05:26:54;5.22;;;2.92;;
12151;SDS011;6139;51.274;7.128;2022-07-11T05:27:55;3.72;;;2.88;;
12151;SDS011;6139;51.274;7.128;2022-07-11T05:28:56;3.05;;;2.75;;
12151;SDS011;6139;51.274;7.128;2022-07-11T05:29:58;4.88;;;2.92;;
12151;SDS011;6139;51.274;7.128;2022-07-11T05:31:01;3.20;;;2.80;;
12151;SDS011;6139;51.274;7.128;2022-07-11T05:32:03;2.75;;;2.53;;
12151;SDS011;6139;51.274;7.128;2022-07-11T05:33:04;3.13;;;2.78;;
12151;SDS011;6139;51.274;7.128;2022-07-11T05:34:06;4.60;;;2.45;;
12151;SDS011;6139;51.274;7.128;2022-07-11T05:35:08;4.57;;;2.65;;
12151;SDS011;6139;51.274;7.128;2022-07-11T05:36:10;4.40;;;2.70;;
12151;SDS011;6139;51.274;7.128;2022-07-11T05:37:11;3.55;;;2.45;;
12151;SDS011;6139;51.274;7.128;2022-07-11T05:38:13;2.70;;;2.40;;
12151;SDS011;6139;51.274;7.128;2022-07-11T05:39:14;2.50;;;2.30;;
12151;SDS011;6139;51.274;7.128;2022-07-11T05:40:16;4.32;;;2.70;;
12151;SDS011;6139;51.274;7.128;2022-07-11T05:41:18;3.30;;;2.88;;
12151;SDS011;6139;51.274;7.128;2022-07-11T05:42:19;5.72;;;2.67;;
12151;SDS011;6139;51.274;7.128;2022-07-11T05:43:20;5.45;;;3.00;;
12151;SDS011;6139;51.274;7.128;2022-07-11T05:44:23;3.08;;;2.78;;
12151;SDS011;6139;51.274;7.128;2022-07-11T05:45:25;3.10;;;2.78;;
12151;SDS011;6139;51.274;7.128;2022-07-11T05:46:27;6.50;;;2.97;;
12151;SDS011;6139;51.274;7.128;2022-07-11T05:47:29;3.60;;;2.92;;
12151;SDS011;6139;51.274;7.128;2022-07-11T05:48:31;4.05;;;2.58;;
12151;SDS011;6139;51.274;7.128;2022-07-11T05:49:32;5.10;;;2.92;;
12151;SDS011;6139;51.274;7.128;2022-07-11T05:50:34;3.10;;;2.80;;
12151;SDS011;6139;51.274;7.128;2022-07-11T05:51:36;3.17;;;2.53;;
12151;SDS011;6139;51.274;7.128;2022-07-11T05:52:37;2.88;;;2.67;;
12151;SDS011;6139;51.274;7.128;2022-07-11T05:53:38;3.45;;;2.70;;
12151;SDS011;6139;51.274;7.128;2022-07-11T05:54:40;5.55;;;3.55;;
12151;SDS011;6139;51.274;7.128;2022-07-11T05:55:41;4.72;;;2.22;;
12151;SDS011;6139;51.274;7.128;2022-07-11T05:56:43;3.35;;;2.33;;
12151;SDS011;6139;51.274;7.128;2022-07-11T05:57:44;2.70;;;2.28;;
12151;SDS011;6139;51.274;7.128;2022-07-11T05:58:46;3.08;;;2.53;;
12151;SDS011;6139;51.274;7.128;2022-07-11T05:59:47;4.53;;;3.10;;
12151;SDS011;6139;51.274;7.128;2022-07-11T06:00:49;2.83;;;2.53;;
12151;SDS011;6139;51.274;7.128;2022-07-11T06:01:51;3.20;;;2.33;;
12151;SDS011;6139;51.274;7.128;2022-07-11T06:02:53;3.78;;;2.42;;
12151;SDS011;6139;51.274;7.128;2022-07-11T06:03:54;4.38;;;2.53;;
12151;SDS011;6139;51.274;7.128;2022-07-11T06:04:56;3.97;;;2.25;;
12151;SDS011;6139;51.274;7.128;2022-07-11T06:05:57;2.63;;;2.42;;
12151;SDS011;6139;51.274;7.128;2022-07-11T06:06:59;5.35;;;2.55;;
12151;SDS011;6139;51.274;7.128;2022-07-11T06:08:01;4.22;;;2.47;;
12151;SDS011;6139;51.274;7.128;2022-07-11T06:09:21;2.85;;;2.28;;
12151;SDS011;6139;51.274;7.128;2022-07-11T06:10:22;3.78;;;2.90;;
12151;SDS011;6139;51.274;7.128;2022-07-11T06:11:23;4.00;;;2.47;;
12151;SDS011;6139;51.274;7.128;2022-07-11T06:12:25;3.05;;;2.25;;
12151;SDS011;6139;51.274;7.128;2022-07-11T06:13:27;6.35;;;3.20;;
12151;SDS011;6139;51.274;7.128;2022-07-11T06:14:30;6.60;;;2.92;;
12151;SDS011;6139;51.274;7.128;2022-07-11T06:15:32;3.25;;;2.88;;
12151;SDS011;6139;51.274;7.128;2022-07-11T06:16:33;3.72;;;3.15;;
12151;SDS011;6139;51.274;7.128;2022-07-11T06:17:36;4.47;;;3.10;;
12151;SDS011;6139;51.274;7.128;2022-07-11T06:18:37;3.30;;;3.00;;